CheckWX is a tool to help pilots better visualize weather data.  It is not intended as a substitute for an official pre-flight weather briefing.

14:13:58 UTC

KCMR METAR
H A Clark Memorial Field Airport
Williams, Arizona, USA
Current

19 mins ago

KCMR 091355Z AUTO 20007KT 10SM CLR 22/02 A3022 RMK AO2
Observed
Jul-9 @ 13:55 UTC
Wind
  • 200° at 7 KTS
Visibility
10 SM
Flight Rules
VFR
Cloud Levels
  • Clear skies
Temperature
22°C / 72°F
Dewpoint
C / 36°F
Humidity
27%
Altimeter
30.22" Hg
Pressure
1023.42 hPa
Previous

39 mins ago

KCMR 091335Z AUTO VRB04KT 9SM CLR 18/02 A3022 RMK AO2
Observed
Jul-9 @ 13:35 UTC
Wind
  • Variable at 4 KTS
Visibility
9 SM
Flight Rules
VFR
Cloud Levels
  • Clear skies
Temperature
18°C / 64°F
Dewpoint
C / 36°F
Humidity
34%
Altimeter
30.22" Hg
Pressure
1023.42 hPa
Previous

59 mins ago

KCMR 091315Z AUTO 00000KT 10SM CLR 14/00 A3021 RMK AO2
Observed
Jul-9 @ 13:15 UTC
Visibility
10 SM
Flight Rules
VFR
Cloud Levels
  • Clear skies
Temperature
14°C / 57°F
Dewpoint
C / 32°F
Humidity
39%
Altimeter
30.21" Hg
Pressure
1023.02 hPa